createdAt,value
2022-12-14T00:01:23.053Z,57.71
2022-12-14T00:03:50.386Z,58.23
2022-12-14T00:06:28.344Z,58.51
2022-12-14T00:08:57.443Z,59.41
2022-12-14T00:11:24.293Z,59.30
2022-12-14T00:13:58.990Z,60.08
2022-12-14T00:16:28.116Z,60.35
2022-12-14T00:18:55.893Z,60.68
2022-12-14T00:21:23.212Z,61.00
2022-12-14T00:23:51.088Z,60.88
2022-12-14T00:26:21.989Z,60.96
2022-12-14T00:28:49.988Z,61.91
2022-12-14T00:31:16.975Z,61.34
2022-12-14T00:33:44.369Z,61.08
2022-12-14T00:36:12.003Z,61.46
2022-12-14T00:38:39.672Z,61.58
2022-12-14T00:41:06.641Z,61.32
2022-12-14T00:43:33.227Z,61.19
2022-12-14T00:45:59.940Z,61.01
2022-12-14T00:48:27.568Z,61.38
2022-12-14T00:50:55.973Z,61.26
2022-12-14T00:53:24.048Z,60.79
2022-12-14T00:55:51.301Z,61.15
2022-12-14T00:58:20.328Z,60.71
2022-12-14T01:00:48.470Z,60.82
2022-12-14T01:03:15.613Z,61.31
2022-12-14T01:05:42.355Z,60.81
2022-12-14T01:08:15.939Z,60.86
2022-12-14T01:10:42.433Z,60.81
2022-12-14T01:13:11.411Z,60.53
2022-12-14T01:15:38.305Z,60.14
2022-12-14T01:18:05.332Z,60.22
2022-12-14T01:20:32.039Z,60.56
2022-12-14T01:22:58.901Z,60.30
2022-12-14T01:25:25.788Z,60.44
2022-12-14T01:27:53.043Z,60.72
2022-12-14T01:30:19.628Z,60.34
2022-12-14T01:32:47.209Z,60.38
2022-12-14T01:35:14.043Z,59.88
2022-12-14T01:37:40.571Z,59.59
2022-12-14T01:40:07.671Z,59.84
2022-12-14T01:42:37.500Z,59.37
2022-12-14T01:45:05.062Z,59.45
2022-12-14T01:47:42.947Z,59.00
2022-12-14T01:50:42.496Z,58.76
2022-12-14T01:53:15.926Z,59.14
2022-12-14T01:55:48.721Z,59.41
2022-12-14T01:58:20.008Z,59.00
2022-12-14T02:00:47.864Z,58.77
2022-12-14T02:03:37.714Z,58.61
2022-12-14T02:06:10.813Z,58.76
2022-12-14T02:08:39.631Z,58.95
2022-12-14T02:11:06.167Z,59.37
2022-12-14T02:13:38.843Z,59.68
2022-12-14T02:16:05.743Z,59.50
2022-12-14T02:18:33.105Z,59.82
2022-12-14T02:21:25.024Z,60.00
2022-12-14T02:24:28.871Z,59.79
2022-12-14T02:27:06.541Z,59.86
2022-12-14T02:29:46.007Z,59.91
2022-12-14T02:32:42.194Z,60.50
2022-12-14T02:35:23.464Z,60.30
2022-12-14T02:38:05.814Z,60.31
2022-12-14T02:40:39.771Z,60.14
2022-12-14T02:43:27.592Z,60.07
2022-12-14T02:46:09.394Z,59.56
2022-12-14T02:48:39.641Z,60.13
2022-12-14T02:51:26.339Z,59.82
2022-12-14T02:54:13.572Z,59.50
2022-12-14T02:56:45.205Z,59.74
2022-12-14T02:59:12.050Z,59.54
2022-12-14T03:01:40.377Z,59.91
2022-12-14T03:04:07.420Z,59.87
2022-12-14T03:06:34.204Z,59.67
2022-12-14T03:09:17.033Z,59.77
2022-12-14T03:11:50.723Z,59.39
2022-12-14T03:14:27.391Z,59.59
2022-12-14T03:17:00.736Z,59.77
2022-12-14T03:19:33.113Z,59.37
2022-12-14T03:22:06.108Z,59.52
2022-12-14T03:24:42.599Z,59.83
2022-12-14T03:27:16.665Z,60.22
2022-12-14T03:29:49.687Z,60.34
2022-12-14T03:32:19.487Z,60.28
2022-12-14T03:35:01.777Z,59.81
2022-12-14T03:37:53.339Z,60.26
2022-12-14T03:40:29.504Z,60.25
2022-12-14T03:43:17.356Z,59.93
2022-12-14T03:45:56.070Z,59.50
2022-12-14T03:48:47.517Z,59.12
2022-12-14T03:51:25.898Z,59.25
2022-12-14T03:54:07.558Z,58.95
2022-12-14T03:56:53.310Z,59.35
2022-12-14T03:59:31.451Z,59.34
2022-12-14T04:02:06.306Z,59.26
2022-12-14T04:04:39.435Z,59.40
2022-12-14T04:07:20.811Z,59.23
2022-12-14T04:09:59.894Z,59.36
2022-12-14T04:12:53.914Z,59.69
2022-12-14T04:15:44.378Z,59.45
2022-12-14T04:18:36.898Z,59.71
2022-12-14T04:21:12.564Z,59.99
2022-12-14T04:24:06.924Z,59.91
2022-12-14T04:26:40.468Z,60.13
2022-12-14T04:29:30.584Z,60.14
2022-12-14T04:32:09.250Z,60.04
2022-12-14T04:34:37.835Z,60.24
2022-12-14T04:37:11.007Z,59.99
2022-12-14T04:39:44.474Z,60.77
2022-12-14T04:42:13.432Z,60.42
2022-12-14T04:44:49.023Z,60.38
2022-12-14T04:47:18.026Z,60.63
2022-12-14T04:49:56.053Z,60.93
2022-12-14T04:52:38.792Z,61.25
2022-12-14T04:55:16.096Z,62.61
2022-12-14T04:57:52.886Z,62.76
2022-12-14T05:00:19.395Z,62.77
2022-12-14T05:03:04.529Z,62.29
2022-12-14T05:06:00.546Z,61.91
2022-12-14T05:08:39.427Z,61.96
2022-12-14T05:11:53.108Z,62.24
2022-12-14T05:14:33.413Z,62.29
2022-12-14T05:17:08.542Z,62.30
2022-12-14T05:19:36.036Z,61.93
2022-12-14T05:22:06.650Z,62.55
2022-12-14T05:24:33.189Z,62.32
2022-12-14T05:26:59.738Z,61.87
2022-12-14T05:29:26.212Z,62.29
2022-12-14T05:31:52.809Z,62.24
2022-12-14T05:34:19.498Z,62.29
2022-12-14T05:36:46.003Z,62.08
2022-12-14T05:39:13.187Z,61.94
2022-12-14T05:41:39.630Z,61.90
2022-12-14T05:44:06.163Z,61.80
2022-12-14T05:46:32.696Z,61.78
2022-12-14T05:48:59.202Z,61.83
2022-12-14T05:51:25.708Z,62.12
2022-12-14T05:53:52.226Z,62.42
2022-12-14T05:56:18.678Z,62.75
2022-12-14T05:58:49.718Z,62.52
2022-12-14T06:01:19.411Z,62.66
2022-12-14T06:03:46.886Z,62.39
2022-12-14T06:06:13.968Z,62.19
2022-12-14T06:08:44.968Z,62.17
2022-12-14T06:11:16.185Z,62.92
2022-12-14T06:13:43.504Z,62.46
2022-12-14T06:16:15.750Z,62.25
2022-12-14T06:18:47.895Z,62.21
2022-12-14T06:21:15.713Z,62.22
2022-12-14T06:23:42.702Z,62.27
2022-12-14T06:26:10.488Z,62.41
2022-12-14T06:28:37.754Z,62.38
2022-12-14T06:31:05.322Z,62.30
2022-12-14T06:33:37.379Z,62.15
2022-12-14T06:36:04.013Z,62.40
2022-12-14T06:38:31.128Z,62.41
2022-12-14T06:40:57.549Z,62.16
2022-12-14T06:43:27.673Z,62.21
2022-12-14T06:45:54.587Z,62.20
2022-12-14T06:48:21.164Z,62.11
2022-12-14T06:50:47.555Z,61.96
2022-12-14T06:53:14.366Z,62.43
2022-12-14T06:55:41.025Z,62.22
2022-12-14T06:58:12.519Z,62.21
2022-12-14T07:00:39.041Z,61.62
2022-12-14T07:03:05.716Z,61.78
2022-12-14T07:05:32.390Z,61.87
2022-12-14T07:07:58.964Z,61.66
2022-12-14T07:10:25.390Z,61.60
2022-12-14T07:12:51.949Z,61.46
2022-12-14T07:15:18.636Z,61.81
2022-12-14T07:17:45.097Z,61.63
2022-12-14T07:20:11.971Z,61.76
2022-12-14T07:22:39.000Z,61.97
2022-12-14T07:25:05.895Z,61.60
2022-12-14T07:27:32.921Z,62.29
2022-12-14T07:29:59.358Z,62.19
2022-12-14T07:32:25.869Z,62.38
2022-12-14T07:34:52.390Z,62.42
2022-12-14T07:37:18.861Z,62.53
2022-12-14T07:39:45.315Z,62.84
2022-12-14T07:42:12.982Z,62.68
2022-12-14T07:44:39.368Z,63.11
2022-12-14T07:47:05.871Z,63.13
2022-12-14T07:49:32.306Z,63.35
2022-12-14T07:51:58.819Z,63.54
2022-12-14T07:54:26.619Z,63.24
2022-12-14T07:56:53.290Z,63.54
2022-12-14T07:59:20.959Z,63.60
2022-12-14T08:01:47.699Z,63.43
2022-12-14T08:04:19.229Z,63.61
2022-12-14T08:06:47.338Z,64.31
2022-12-14T08:09:14.270Z,64.17
2022-12-14T08:11:40.699Z,64.73
2022-12-14T08:14:17.339Z,64.59
2022-12-14T08:16:44.741Z,64.50
2022-12-14T08:19:12.079Z,64.65
2022-12-14T08:21:39.516Z,64.75
2022-12-14T08:24:06.336Z,65.16
2022-12-14T08:26:35.721Z,65.39
2022-12-14T08:29:03.051Z,65.09
2022-12-14T08:31:29.970Z,65.79
2022-12-14T08:33:58.884Z,64.88
2022-12-14T08:36:29.147Z,64.02
2022-12-14T08:38:57.950Z,64.38
2022-12-14T08:41:26.441Z,64.80
2022-12-14T08:43:54.208Z,64.94
2022-12-14T08:46:21.126Z,64.72
2022-12-14T08:48:50.342Z,65.20
2022-12-14T08:51:17.296Z,65.09
2022-12-14T08:53:44.229Z,65.71
2022-12-14T08:56:17.082Z,66.35
2022-12-14T08:58:44.009Z,66.11
2022-12-14T09:01:34.345Z,65.73
2022-12-14T09:04:08.086Z,65.86
2022-12-14T09:06:37.952Z,66.17
2022-12-14T09:09:13.290Z,65.07
2022-12-14T09:11:42.846Z,65.78
2022-12-14T09:14:09.422Z,66.02
2022-12-14T09:16:36.011Z,65.93
2022-12-14T09:19:02.557Z,65.86
2022-12-14T09:21:29.219Z,65.18
2022-12-14T09:23:59.587Z,66.01
2022-12-14T09:26:26.770Z,65.80
2022-12-14T09:28:55.520Z,65.59
2022-12-14T09:31:24.876Z,66.98
2022-12-14T09:33:51.641Z,66.26
2022-12-14T09:36:24.015Z,66.07
2022-12-14T09:38:52.638Z,66.62
2022-12-14T09:41:34.772Z,66.39
2022-12-14T09:44:39.068Z,66.06
2022-12-14T09:47:28.900Z,66.56
2022-12-14T09:50:00.205Z,67.25
2022-12-14T09:52:47.354Z,67.12
2022-12-14T09:55:23.036Z,65.77
2022-12-14T09:57:56.394Z,66.70
2022-12-14T10:00:22.912Z,66.60
2022-12-14T10:03:14.685Z,66.60
2022-12-14T10:06:15.753Z,66.57
2022-12-14T10:08:54.566Z,66.79
2022-12-14T10:11:46.239Z,67.17
2022-12-14T10:14:27.384Z,66.78
2022-12-14T10:17:06.620Z,66.82
2022-12-14T10:19:37.553Z,67.19
2022-12-14T10:22:23.102Z,66.58
2022-12-14T10:24:58.958Z,67.43
2022-12-14T10:27:47.727Z,66.61
2022-12-14T10:30:19.713Z,67.43
2022-12-14T10:32:52.448Z,67.23
2022-12-14T10:35:25.651Z,65.96
2022-12-14T10:38:28.095Z,66.56
2022-12-14T10:41:00.201Z,67.29
2022-12-14T10:43:49.553Z,66.72
2022-12-14T10:46:24.861Z,67.15
2022-12-14T10:49:20.465Z,67.14
2022-12-14T10:51:55.219Z,66.89
2022-12-14T10:54:30.554Z,66.06
2022-12-14T10:56:57.388Z,66.77
2022-12-14T10:59:43.696Z,67.11
2022-12-14T11:02:37.033Z,67.15
2022-12-14T11:05:18.155Z,67.18
2022-12-14T11:07:46.035Z,67.32
2022-12-14T11:10:17.194Z,67.12
2022-12-14T11:13:12.472Z,66.87
2022-12-14T11:15:47.483Z,66.71
2022-12-14T11:18:17.086Z,67.54
2022-12-14T11:20:54.447Z,67.06
2022-12-14T11:23:25.350Z,67.24
2022-12-14T11:25:55.717Z,66.42
2022-12-14T11:28:37.362Z,66.35
2022-12-14T11:31:38.049Z,66.48
2022-12-14T11:34:07.292Z,67.69
2022-12-14T11:36:42.074Z,67.44
2022-12-14T11:39:14.745Z,67.42
2022-12-14T11:41:47.026Z,67.11
2022-12-14T11:44:16.304Z,66.92
2022-12-14T11:46:49.941Z,66.98
2022-12-14T11:49:35.265Z,67.31
2022-12-14T11:52:14.283Z,67.07
2022-12-14T11:55:12.385Z,68.00
2022-12-14T11:57:52.582Z,68.67
2022-12-14T12:00:25.343Z,68.05
2022-12-14T12:03:03.847Z,68.47
2022-12-14T12:05:39.281Z,68.90
2022-12-14T12:08:16.766Z,67.96
2022-12-14T12:10:50.659Z,67.93
2022-12-14T12:13:21.222Z,67.88
2022-12-14T12:15:52.375Z,68.01
2022-12-14T12:18:46.775Z,67.45
2022-12-14T12:21:25.247Z,67.98
2022-12-14T12:24:02.713Z,67.69
2022-12-14T12:26:34.458Z,68.26
2022-12-14T12:29:07.559Z,67.58
2022-12-14T12:32:03.769Z,68.12
2022-12-14T12:34:42.381Z,67.43
2022-12-14T12:37:31.032Z,66.99
2022-12-14T12:40:03.537Z,67.50
2022-12-14T12:42:43.715Z,68.28
2022-12-14T12:45:24.779Z,68.22
2022-12-14T12:48:14.912Z,67.80
2022-12-14T12:50:50.793Z,68.66
2022-12-14T12:53:25.464Z,67.68
2022-12-14T12:56:06.659Z,67.76
2022-12-14T12:58:36.867Z,68.39
2022-12-14T13:01:28.733Z,68.12
2022-12-14T13:04:03.173Z,67.92
2022-12-14T13:06:48.723Z,68.13
2022-12-14T13:10:03.436Z,67.78
2022-12-14T13:12:38.919Z,67.55
2022-12-14T13:15:16.327Z,67.52
2022-12-14T13:17:50.934Z,68.54
2022-12-14T13:20:22.856Z,68.01
2022-12-14T13:22:50.126Z,68.14
2022-12-14T13:25:46.899Z,67.90
2022-12-14T13:28:50.614Z,68.17
2022-12-14T13:31:37.569Z,69.03
2022-12-14T13:34:27.202Z,68.08
2022-12-14T13:37:24.586Z,68.64
2022-12-14T13:40:09.827Z,68.29
2022-12-14T13:43:05.962Z,68.04
2022-12-14T13:45:43.898Z,67.65
2022-12-14T13:48:26.448Z,67.84
2022-12-14T13:51:02.604Z,68.22
2022-12-14T13:53:50.245Z,67.87
2022-12-14T13:56:29.277Z,67.93
2022-12-14T13:59:00.322Z,68.51
2022-12-14T14:01:48.724Z,68.25
2022-12-14T14:04:21.895Z,68.11
2022-12-14T14:06:50.427Z,68.59
2022-12-14T14:09:26.053Z,68.17
2022-12-14T14:11:59.737Z,68.28
2022-12-14T14:14:52.948Z,67.97
2022-12-14T14:17:42.942Z,67.84
2022-12-14T14:20:28.190Z,68.51
2022-12-14T14:23:12.945Z,68.51
2022-12-14T14:26:10.148Z,68.15
2022-12-14T14:28:38.166Z,69.07
2022-12-14T14:31:05.446Z,68.48
2022-12-14T14:33:49.063Z,67.80
2022-12-14T14:36:33.099Z,68.28
2022-12-14T14:39:24.485Z,68.90
2022-12-14T14:41:53.617Z,69.21
2022-12-14T14:44:50.081Z,69.60
2022-12-14T14:47:33.466Z,70.39
2022-12-14T14:50:04.638Z,69.52
2022-12-14T14:52:40.311Z,69.10
2022-12-14T14:58:44.663Z,69.78
2022-12-14T15:01:24.955Z,69.29
2022-12-14T15:04:02.328Z,69.76
2022-12-14T15:06:33.383Z,69.02
2022-12-14T15:09:05.277Z,69.65
2022-12-14T15:11:50.569Z,69.57
2022-12-14T15:14:33.138Z,69.61
2022-12-14T15:17:14.805Z,70.12
2022-12-14T15:19:54.490Z,70.18
2022-12-14T15:22:24.866Z,69.99
2022-12-14T15:24:54.524Z,70.17
2022-12-14T15:27:28.738Z,69.72
2022-12-14T15:30:21.041Z,70.25
2022-12-14T15:32:58.068Z,69.94
2022-12-14T15:35:31.983Z,69.94
2022-12-14T15:38:03.289Z,70.46
2022-12-14T15:40:31.059Z,70.47
2022-12-14T15:43:00.099Z,69.82
2022-12-14T15:45:26.788Z,70.10
2022-12-14T15:47:54.029Z,70.26
2022-12-14T15:50:28.255Z,70.25
2022-12-14T15:52:58.871Z,70.19
2022-12-14T15:55:28.087Z,69.93
2022-12-14T15:57:54.942Z,70.43
2022-12-14T16:00:21.689Z,70.46
2022-12-14T16:02:48.989Z,70.27
2022-12-14T16:05:22.992Z,69.45
2022-12-14T16:07:55.700Z,69.90
2022-12-14T16:10:34.399Z,69.67
2022-12-14T16:13:06.518Z,69.50
2022-12-14T16:15:33.531Z,69.96
2022-12-14T16:18:03.181Z,70.22
2022-12-14T16:20:32.539Z,69.80
2022-12-14T16:23:14.212Z,70.19
2022-12-14T16:26:03.114Z,70.14
2022-12-14T16:28:35.443Z,70.39
2022-12-14T16:31:07.018Z,70.97
2022-12-14T16:33:36.136Z,70.67
2022-12-14T16:36:24.398Z,70.44
2022-12-14T16:39:01.383Z,69.90
2022-12-14T16:41:39.730Z,70.58
2022-12-14T16:44:10.013Z,70.29
2022-12-14T16:46:36.695Z,70.38
2022-12-14T16:49:22.060Z,70.16
2022-12-14T16:52:07.242Z,70.24
2022-12-14T16:54:34.307Z,70.79
2022-12-14T16:57:05.328Z,70.27
2022-12-14T16:59:41.000Z,70.09
2022-12-14T17:02:28.953Z,70.44
2022-12-14T17:04:57.553Z,70.79
2022-12-14T17:07:25.478Z,70.06
2022-12-14T17:09:51.952Z,70.20
2022-12-14T17:12:18.903Z,70.21
2022-12-14T17:14:49.933Z,69.98
2022-12-14T17:17:22.343Z,70.14
2022-12-14T17:19:49.060Z,69.82
2022-12-14T17:22:24.664Z,70.23
2022-12-14T17:24:51.426Z,69.81
2022-12-14T17:27:20.950Z,69.40
2022-12-14T17:29:48.039Z,69.85
2022-12-14T17:32:16.392Z,70.04
2022-12-14T17:34:45.448Z,69.88
2022-12-14T17:37:19.955Z,69.38
2022-12-14T17:39:46.554Z,69.74
2022-12-14T17:42:15.614Z,69.70
2022-12-14T17:44:43.910Z,69.23
2022-12-14T17:47:14.208Z,69.96
2022-12-14T17:49:42.313Z,70.09
2022-12-14T17:52:18.423Z,70.45
2022-12-14T17:54:45.510Z,69.76
2022-12-14T17:57:20.271Z,69.81
2022-12-14T17:59:47.879Z,69.80
2022-12-14T18:02:31.274Z,70.10
2022-12-14T18:04:58.077Z,70.59
2022-12-14T18:07:24.569Z,70.09
2022-12-14T18:09:53.264Z,69.77
2022-12-14T18:12:23.547Z,70.13
2022-12-14T18:14:50.524Z,70.21
2022-12-14T18:17:18.814Z,69.89
2022-12-14T18:19:45.365Z,69.59
2022-12-14T18:22:14.621Z,69.57
2022-12-14T18:24:41.164Z,70.08
2022-12-14T18:27:07.617Z,70.43
2022-12-14T18:29:34.131Z,70.82
2022-12-14T18:32:00.812Z,70.67
2022-12-14T18:34:27.366Z,71.15
2022-12-14T18:36:54.249Z,70.80
2022-12-14T18:39:20.722Z,70.98
2022-12-14T18:41:47.190Z,70.20
2022-12-14T18:44:13.921Z,69.21
2022-12-14T18:46:40.540Z,68.91
2022-12-14T18:49:07.369Z,70.01
2022-12-14T18:51:33.870Z,70.33
2022-12-14T18:54:00.579Z,69.86
2022-12-14T18:56:29.111Z,70.28
2022-12-14T18:58:56.294Z,68.89
2022-12-14T19:01:24.976Z,68.86
2022-12-14T19:03:52.163Z,69.59
2022-12-14T19:09:09.028Z,70.56
2022-12-14T19:11:38.988Z,70.91
2022-12-14T19:14:05.808Z,71.25
2022-12-14T19:16:32.438Z,71.51
2022-12-14T19:19:00.934Z,70.91
2022-12-14T19:21:29.315Z,71.80
2022-12-14T19:23:56.049Z,71.02
2022-12-14T19:26:22.744Z,70.50
2022-12-14T19:28:49.332Z,70.78
2022-12-14T19:31:15.941Z,70.79
2022-12-14T19:33:42.788Z,70.76
2022-12-14T19:36:09.760Z,71.13
2022-12-14T19:38:36.987Z,70.66
2022-12-14T19:41:21.477Z,70.65
2022-12-14T19:43:48.538Z,71.01
2022-12-14T19:46:16.317Z,70.38
2022-12-14T19:48:42.905Z,70.39
2022-12-14T19:51:12.112Z,70.22
2022-12-14T19:53:40.137Z,70.83
2022-12-14T19:56:06.963Z,70.34
2022-12-14T19:58:33.485Z,70.34
2022-12-14T20:01:00.119Z,69.83
2022-12-14T20:03:27.253Z,69.33
2022-12-14T20:05:59.125Z,69.57
2022-12-14T20:08:29.459Z,68.92
2022-12-14T20:10:56.718Z,69.15
2022-12-14T20:13:26.543Z,69.18
2022-12-14T20:16:00.585Z,69.56
2022-12-14T20:18:28.003Z,69.39
2022-12-14T20:21:02.699Z,69.60
2022-12-14T20:23:29.664Z,69.27
2022-12-14T20:26:00.712Z,69.17
2022-12-14T20:28:27.419Z,69.65
2022-12-14T20:30:54.131Z,69.16
2022-12-14T20:33:23.882Z,70.16
2022-12-14T20:35:53.391Z,69.69
2022-12-14T20:38:19.896Z,69.33
2022-12-14T20:40:46.335Z,69.55
2022-12-14T20:43:12.958Z,69.73
2022-12-14T20:45:41.091Z,69.61
2022-12-14T20:48:08.175Z,69.67
2022-12-14T20:50:39.397Z,69.66
2022-12-14T20:53:06.622Z,69.73
2022-12-14T20:55:34.756Z,69.48
2022-12-14T20:58:01.538Z,70.05
2022-12-14T21:00:28.436Z,70.06
2022-12-14T21:02:55.169Z,70.06
2022-12-14T21:05:21.730Z,69.99
2022-12-14T21:07:48.819Z,69.96
2022-12-14T21:10:15.315Z,69.72
2022-12-14T21:12:41.786Z,69.81
2022-12-14T21:15:08.639Z,69.84
2022-12-14T21:17:35.167Z,69.27
2022-12-14T21:20:01.726Z,69.17
2022-12-14T21:22:30.300Z,69.36
2022-12-14T21:25:05.694Z,69.68
2022-12-14T21:27:34.658Z,69.38
2022-12-14T21:30:01.338Z,69.28
2022-12-14T21:32:28.005Z,69.98
2022-12-14T21:34:54.481Z,69.57
2022-12-14T21:37:21.075Z,69.90
2022-12-14T21:39:54.401Z,69.81
2022-12-14T21:42:25.206Z,69.90
2022-12-14T21:44:53.027Z,69.75
2022-12-14T21:47:22.481Z,69.91
2022-12-14T21:49:49.215Z,70.43
2022-12-14T21:52:18.778Z,70.18
2022-12-14T21:54:45.524Z,69.53
2022-12-14T21:57:35.295Z,69.70
2022-12-14T22:00:02.740Z,69.81
2022-12-14T22:02:29.701Z,69.42
2022-12-14T22:04:56.622Z,69.87
2022-12-14T22:07:28.639Z,69.41
2022-12-14T22:09:55.064Z,70.19
2022-12-14T22:12:21.812Z,69.67
2022-12-14T22:14:50.079Z,70.29
2022-12-14T22:17:16.571Z,70.49
2022-12-14T22:19:43.040Z,70.17
2022-12-14T22:22:14.882Z,70.27
2022-12-14T22:24:42.038Z,69.99
2022-12-14T22:27:10.780Z,69.21
2022-12-14T22:29:37.460Z,68.74
2022-12-14T22:32:04.275Z,68.13
2022-12-14T22:34:30.741Z,67.69
2022-12-14T22:36:57.323Z,68.21
2022-12-14T22:39:23.772Z,68.52
2022-12-14T22:41:50.325Z,68.33
2022-12-14T22:44:17.001Z,68.59
2022-12-14T22:46:43.610Z,69.02
2022-12-14T22:49:15.707Z,69.15
2022-12-14T22:51:42.272Z,69.30
2022-12-14T22:54:08.782Z,69.21
2022-12-14T22:56:43.535Z,69.45
2022-12-14T22:59:20.478Z,69.48
2022-12-14T23:01:50.231Z,69.39
2022-12-14T23:04:17.676Z,69.42
2022-12-14T23:06:45.034Z,69.37
2022-12-14T23:09:29.938Z,68.73
2022-12-14T23:12:19.634Z,69.14
2022-12-14T23:15:06.633Z,69.59
2022-12-14T23:17:51.707Z,69.84
2022-12-14T23:20:37.465Z,69.32
2022-12-14T23:23:27.088Z,69.02
2022-12-14T23:26:12.659Z,69.07
2022-12-14T23:28:58.012Z,69.18
2022-12-14T23:31:43.011Z,69.36
2022-12-14T23:34:27.749Z,68.72
2022-12-14T23:37:16.537Z,69.29
2022-12-14T23:40:04.648Z,69.08
2022-12-14T23:42:49.685Z,68.95
2022-12-14T23:45:34.988Z,68.92
2022-12-14T23:48:19.952Z,69.02
2022-12-14T23:51:04.750Z,69.22
2022-12-14T23:53:50.268Z,68.97
2022-12-14T23:56:35.518Z,69.12
2022-12-14T23:59:24.913Z,68.32
